sensor_id;sensor_type;location;lat;lon;timestamp;temperature;humidity
33476;DHT22;19814;48.224;11.422;2023-09-18T00:00:49;16.90;99.90
33476;DHT22;19814;48.224;11.422;2023-09-18T00:03:16;17.00;99.90
33476;DHT22;19814;48.224;11.422;2023-09-18T00:05:43;17.10;99.90
33476;DHT22;19814;48.224;11.422;2023-09-18T00:08:08;17.10;99.90
33476;DHT22;19814;48.224;11.422;2023-09-18T00:10:34;17.10;99.90
33476;DHT22;19814;48.224;11.422;2023-09-18T00:13:00;17.10;99.90
33476;DHT22;19814;48.224;11.422;2023-09-18T00:15:26;17.10;99.90
33476;DHT22;19814;48.224;11.422;2023-09-18T00:17:52;17.00;99.90
33476;DHT22;19814;48.224;11.422;2023-09-18T00:20:17;16.90;99.90
33476;DHT22;19814;48.224;11.422;2023-09-18T00:22:44;16.90;99.90
33476;DHT22;19814;48.224;11.422;2023-09-18T00:25:09;16.80;99.90
33476;DHT22;19814;48.224;11.422;2023-09-18T00:27:35;16.70;99.90
33476;DHT22;19814;48.224;11.422;2023-09-18T00:30:03;16.70;99.90
33476;DHT22;19814;48.224;11.422;2023-09-18T00:32:29;16.70;99.90
33476;DHT22;19814;48.224;11.422;2023-09-18T00:34:55;16.70;99.90
33476;DHT22;19814;48.224;11.422;2023-09-18T00:37:21;16.80;99.90
33476;DHT22;19814;48.224;11.422;2023-09-18T00:39:47;16.80;99.90
33476;DHT22;19814;48.224;11.422;2023-09-18T00:42:12;16.80;99.90
33476;DHT22;19814;48.224;11.422;2023-09-18T00:44:39;16.80;99.90
33476;DHT22;19814;48.224;11.422;2023-09-18T00:47:07;16.70;99.90
33476;DHT22;19814;48.224;11.422;2023-09-18T00:49:33;16.70;99.90
33476;DHT22;19814;48.224;11.422;2023-09-18T00:51:59;16.70;99.90
33476;DHT22;19814;48.224;11.422;2023-09-18T00:54:25;16.70;99.90
33476;DHT22;19814;48.224;11.422;2023-09-18T00:56:52;16.70;99.90
33476;DHT22;19814;48.224;11.422;2023-09-18T00:59:20;16.70;99.90
33476;DHT22;19814;48.224;11.422;2023-09-18T01:01:46;16.60;99.90
33476;DHT22;19814;48.224;11.422;2023-09-18T01:04:14;16.60;99.90
33476;DHT22;19814;48.224;11.422;2023-09-18T01:06:40;16.60;99.90
33476;DHT22;19814;48.224;11.422;2023-09-18T01:09:05;16.50;99.90
33476;DHT22;19814;48.224;11.422;2023-09-18T01:14:40;16.40;99.90
33476;DHT22;19814;48.224;11.422;2023-09-18T01:17:10;16.40;99.90
33476;DHT22;19814;48.224;11.422;2023-09-18T01:19:45;16.40;99.90
33476;DHT22;19814;48.224;11.422;2023-09-18T01:22:17;16.40;99.90
33476;DHT22;19814;48.224;11.422;2023-09-18T01:24:44;16.40;99.90
33476;DHT22;19814;48.224;11.422;2023-09-18T01:27:11;16.50;99.90
33476;DHT22;19814;48.224;11.422;2023-09-18T01:29:44;16.50;99.90
33476;DHT22;19814;48.224;11.422;2023-09-18T01:32:10;16.50;99.90
33476;DHT22;19814;48.224;11.422;2023-09-18T01:34:39;16.40;99.90
33476;DHT22;19814;48.224;11.422;2023-09-18T01:37:07;16.40;99.90
33476;DHT22;19814;48.224;11.422;2023-09-18T01:39:35;16.30;99.90
33476;DHT22;19814;48.224;11.422;2023-09-18T01:42:04;16.20;99.90
33476;DHT22;19814;48.224;11.422;2023-09-18T01:44:31;16.20;99.90
33476;DHT22;19814;48.224;11.422;2023-09-18T01:46:59;16.20;99.90
33476;DHT22;19814;48.224;11.422;2023-09-18T01:49:29;16.20;99.90
33476;DHT22;19814;48.224;11.422;2023-09-18T01:51:55;16.20;99.90
33476;DHT22;19814;48.224;11.422;2023-09-18T01:54:20;16.20;99.90
33476;DHT22;19814;48.224;11.422;2023-09-18T01:56:46;16.10;99.90
33476;DHT22;19814;48.224;11.422;2023-09-18T01:59:12;16.10;99.90
33476;DHT22;19814;48.224;11.422;2023-09-18T02:01:37;16.20;99.90
33476;DHT22;19814;48.224;11.422;2023-09-18T02:04:04;16.20;99.90
33476;DHT22;19814;48.224;11.422;2023-09-18T02:06:29;16.10;99.90
33476;DHT22;19814;48.224;11.422;2023-09-18T02:08:55;16.10;99.90
33476;DHT22;19814;48.224;11.422;2023-09-18T02:11:21;16.10;99.90
33476;DHT22;19814;48.224;11.422;2023-09-18T02:13:46;16.10;99.90
33476;DHT22;19814;48.224;11.422;2023-09-18T02:16:12;16.00;99.90
33476;DHT22;19814;48.224;11.422;2023-09-18T02:18:37;16.00;99.90
33476;DHT22;19814;48.224;11.422;2023-09-18T02:21:03;15.90;99.90
33476;DHT22;19814;48.224;11.422;2023-09-18T02:23:28;15.80;99.90
33476;DHT22;19814;48.224;11.422;2023-09-18T02:25:58;15.80;99.90
33476;DHT22;19814;48.224;11.422;2023-09-18T02:28:23;15.80;99.90
33476;DHT22;19814;48.224;11.422;2023-09-18T02:30:49;15.80;99.90
33476;DHT22;19814;48.224;11.422;2023-09-18T02:33:15;15.90;99.90
33476;DHT22;19814;48.224;11.422;2023-09-18T02:35:41;15.90;99.90
33476;DHT22;19814;48.224;11.422;2023-09-18T02:38:08;15.80;99.90
33476;DHT22;19814;48.224;11.422;2023-09-18T02:40:34;15.80;99.90
33476;DHT22;19814;48.224;11.422;2023-09-18T02:42:59;15.70;99.90
33476;DHT22;19814;48.224;11.422;2023-09-18T02:45:26;15.70;99.90
33476;DHT22;19814;48.224;11.422;2023-09-18T02:47:51;15.70;99.90
33476;DHT22;19814;48.224;11.422;2023-09-18T02:50:17;15.70;99.90
33476;DHT22;19814;48.224;11.422;2023-09-18T02:52:42;15.70;99.90
33476;DHT22;19814;48.224;11.422;2023-09-18T02:55:08;15.70;99.90
33476;DHT22;19814;48.224;11.422;2023-09-18T02:57:35;15.80;99.90
33476;DHT22;19814;48.224;11.422;2023-09-18T03:00:01;15.80;99.90
33476;DHT22;19814;48.224;11.422;2023-09-18T03:02:26;15.80;99.90
33476;DHT22;19814;48.224;11.422;2023-09-18T03:04:52;15.90;99.90
33476;DHT22;19814;48.224;11.422;2023-09-18T03:07:17;15.90;99.90
33476;DHT22;19814;48.224;11.422;2023-09-18T03:09:43;15.90;99.90
33476;DHT22;19814;48.224;11.422;2023-09-18T03:12:08;15.90;99.90
33476;DHT22;19814;48.224;11.422;2023-09-18T03:14:34;15.90;99.90
33476;DHT22;19814;48.224;11.422;2023-09-18T03:17:00;15.80;99.90
33476;DHT22;19814;48.224;11.422;2023-09-18T03:19:25;15.80;99.90
33476;DHT22;19814;48.224;11.422;2023-09-18T03:21:52;15.70;99.90
33476;DHT22;19814;48.224;11.422;2023-09-18T03:24:18;15.70;99.90
33476;DHT22;19814;48.224;11.422;2023-09-18T03:26:43;15.70;99.90
33476;DHT22;19814;48.224;11.422;2023-09-18T03:29:10;15.70;99.90
33476;DHT22;19814;48.224;11.422;2023-09-18T03:31:35;15.60;99.90
33476;DHT22;19814;48.224;11.422;2023-09-18T03:34:01;15.70;99.90
33476;DHT22;19814;48.224;11.422;2023-09-18T03:36:26;15.60;99.90
33476;DHT22;19814;48.224;11.422;2023-09-18T03:38:52;15.70;99.90
33476;DHT22;19814;48.224;11.422;2023-09-18T03:41:17;15.70;99.90
33476;DHT22;19814;48.224;11.422;2023-09-18T03:43:43;15.60;99.90
33476;DHT22;19814;48.224;11.422;2023-09-18T03:46:08;15.60;99.90
33476;DHT22;19814;48.224;11.422;2023-09-18T03:48:34;15.50;99.90
33476;DHT22;19814;48.224;11.422;2023-09-18T03:51:06;15.40;99.90
33476;DHT22;19814;48.224;11.422;2023-09-18T03:53:35;15.40;99.90
33476;DHT22;19814;48.224;11.422;2023-09-18T03:56:01;15.40;99.90
33476;DHT22;19814;48.224;11.422;2023-09-18T03:58:27;15.40;99.90
33476;DHT22;19814;48.224;11.422;2023-09-18T04:00:53;15.40;99.90
33476;DHT22;19814;48.224;11.422;2023-09-18T04:03:18;15.50;99.90
33476;DHT22;19814;48.224;11.422;2023-09-18T04:05:44;15.50;99.90
33476;DHT22;19814;48.224;11.422;2023-09-18T04:08:10;15.50;99.90
33476;DHT22;19814;48.224;11.422;2023-09-18T04:10:36;15.50;99.90
33476;DHT22;19814;48.224;11.422;2023-09-18T04:13:02;15.50;99.90
33476;DHT22;19814;48.224;11.422;2023-09-18T04:15:27;15.50;99.90
33476;DHT22;19814;48.224;11.422;2023-09-18T04:17:56;15.50;99.90
33476;DHT22;19814;48.224;11.422;2023-09-18T04:20:21;15.50;99.90
33476;DHT22;19814;48.224;11.422;2023-09-18T04:23:26;15.40;99.90
33476;DHT22;19814;48.224;11.422;2023-09-18T04:25:53;15.40;99.90
33476;DHT22;19814;48.224;11.422;2023-09-18T04:28:20;15.30;99.90
33476;DHT22;19814;48.224;11.422;2023-09-18T04:30:46;15.30;99.90
33476;DHT22;19814;48.224;11.422;2023-09-18T04:33:15;15.20;99.90
33476;DHT22;19814;48.224;11.422;2023-09-18T04:35:41;15.10;99.90
33476;DHT22;19814;48.224;11.422;2023-09-18T04:38:07;15.10;99.90
33476;DHT22;19814;48.224;11.422;2023-09-18T04:40:34;15.00;99.90
33476;DHT22;19814;48.224;11.422;2023-09-18T04:43:00;15.00;99.90
33476;DHT22;19814;48.224;11.422;2023-09-18T04:45:26;15.00;99.90
33476;DHT22;19814;48.224;11.422;2023-09-18T04:47:52;15.00;99.90
33476;DHT22;19814;48.224;11.422;2023-09-18T04:50:18;15.00;99.90
33476;DHT22;19814;48.224;11.422;2023-09-18T04:52:44;15.00;99.90
33476;DHT22;19814;48.224;11.422;2023-09-18T04:55:10;15.00;99.90
33476;DHT22;19814;48.224;11.422;2023-09-18T04:57:37;15.00;99.90
33476;DHT22;19814;48.224;11.422;2023-09-18T05:00:03;15.00;99.90
33476;DHT22;19814;48.224;11.422;2023-09-18T05:02:33;15.00;99.90
33476;DHT22;19814;48.224;11.422;2023-09-18T05:04:59;14.90;99.90
33476;DHT22;19814;48.224;11.422;2023-09-18T05:07:25;14.80;99.90
33476;DHT22;19814;48.224;11.422;2023-09-18T05:09:51;14.90;99.90
33476;DHT22;19814;48.224;11.422;2023-09-18T05:12:17;14.90;99.90
33476;DHT22;19814;48.224;11.422;2023-09-18T05:14:43;15.00;99.90
33476;DHT22;19814;48.224;11.422;2023-09-18T05:17:10;15.10;99.90
33476;DHT22;19814;48.224;11.422;2023-09-18T05:19:39;15.20;99.90
33476;DHT22;19814;48.224;11.422;2023-09-18T05:22:04;15.30;99.90
33476;DHT22;19814;48.224;11.422;2023-09-18T05:24:30;15.30;99.90
33476;DHT22;19814;48.224;11.422;2023-09-18T05:26:55;15.40;99.90
33476;DHT22;19814;48.224;11.422;2023-09-18T05:29:21;15.40;99.90
33476;DHT22;19814;48.224;11.422;2023-09-18T05:31:47;15.50;99.90
33476;DHT22;19814;48.224;11.422;2023-09-18T05:34:12;15.60;99.90
33476;DHT22;19814;48.224;11.422;2023-09-18T05:36:38;15.60;99.90
33476;DHT22;19814;48.224;11.422;2023-09-18T05:39:04;15.60;99.90
33476;DHT22;19814;48.224;11.422;2023-09-18T05:41:30;15.70;99.90
33476;DHT22;19814;48.224;11.422;2023-09-18T05:43:56;15.60;99.90
33476;DHT22;19814;48.224;11.422;2023-09-18T05:46:22;15.50;99.90
33476;DHT22;19814;48.224;11.422;2023-09-18T05:48:48;15.60;99.90
33476;DHT22;19814;48.224;11.422;2023-09-18T05:51:13;15.70;99.90
33476;DHT22;19814;48.224;11.422;2023-09-18T05:53:39;15.80;99.90
33476;DHT22;19814;48.224;11.422;2023-09-18T05:56:04;15.90;99.90
33476;DHT22;19814;48.224;11.422;2023-09-18T05:58:33;16.10;99.90
33476;DHT22;19814;48.224;11.422;2023-09-18T06:01:00;16.30;99.90
33476;DHT22;19814;48.224;11.422;2023-09-18T06:03:29;16.40;99.90
33476;DHT22;19814;48.224;11.422;2023-09-18T06:06:03;16.50;99.90
33476;DHT22;19814;48.224;11.422;2023-09-18T06:08:29;16.70;99.90
33476;DHT22;19814;48.224;11.422;2023-09-18T06:10:56;16.70;99.90
33476;DHT22;19814;48.224;11.422;2023-09-18T06:13:23;16.70;99.90
33476;DHT22;19814;48.224;11.422;2023-09-18T06:15:49;16.70;99.90
33476;DHT22;19814;48.224;11.422;2023-09-18T06:18:16;16.80;99.90
33476;DHT22;19814;48.224;11.422;2023-09-18T06:20:41;16.90;99.90
33476;DHT22;19814;48.224;11.422;2023-09-18T06:23:09;16.90;99.90
33476;DHT22;19814;48.224;11.422;2023-09-18T06:25:34;17.00;99.90
33476;DHT22;19814;48.224;11.422;2023-09-18T06:28:00;17.10;99.90
33476;DHT22;19814;48.224;11.422;2023-09-18T06:30:28;17.30;99.90
33476;DHT22;19814;48.224;11.422;2023-09-18T06:32:55;17.40;99.90
33476;DHT22;19814;48.224;11.422;2023-09-18T06:35:20;17.50;99.90
33476;DHT22;19814;48.224;11.422;2023-09-18T06:37:46;17.40;99.90
33476;DHT22;19814;48.224;11.422;2023-09-18T06:40:12;17.50;99.90
33476;DHT22;19814;48.224;11.422;2023-09-18T06:42:37;17.60;99.90
33476;DHT22;19814;48.224;11.422;2023-09-18T06:45:03;17.70;99.90
33476;DHT22;19814;48.224;11.422;2023-09-18T06:47:32;17.80;99.90
33476;DHT22;19814;48.224;11.422;2023-09-18T06:49:58;17.90;99.90
33476;DHT22;19814;48.224;11.422;2023-09-18T06:52:23;18.10;99.90
33476;DHT22;19814;48.224;11.422;2023-09-18T06:54:50;18.20;99.90
33476;DHT22;19814;48.224;11.422;2023-09-18T06:57:16;18.30;99.90
33476;DHT22;19814;48.224;11.422;2023-09-18T06:59:41;18.40;99.90
33476;DHT22;19814;48.224;11.422;2023-09-18T07:02:07;18.40;99.90
33476;DHT22;19814;48.224;11.422;2023-09-18T07:04:32;18.50;99.90
33476;DHT22;19814;48.224;11.422;2023-09-18T07:06:58;18.60;99.90
33476;DHT22;19814;48.224;11.422;2023-09-18T07:09:24;18.70;99.90
33476;DHT22;19814;48.224;11.422;2023-09-18T07:11:49;18.80;99.90
33476;DHT22;19814;48.224;11.422;2023-09-18T07:14:16;19.00;99.90
33476;DHT22;19814;48.224;11.422;2023-09-18T07:16:41;19.40;99.90
33476;DHT22;19814;48.224;11.422;2023-09-18T07:19:07;19.60;99.90
33476;DHT22;19814;48.224;11.422;2023-09-18T07:21:36;19.70;99.90
33476;DHT22;19814;48.224;11.422;2023-09-18T07:24:03;19.90;99.90
33476;DHT22;19814;48.224;11.422;2023-09-18T07:26:29;19.90;99.90
33476;DHT22;19814;48.224;11.422;2023-09-18T07:28:54;19.90;99.90
33476;DHT22;19814;48.224;11.422;2023-09-18T07:31:20;19.90;99.90
33476;DHT22;19814;48.224;11.422;2023-09-18T07:33:45;19.90;99.90
33476;DHT22;19814;48.224;11.422;2023-09-18T07:36:11;19.80;99.90
33476;DHT22;19814;48.224;11.422;2023-09-18T07:38:36;19.80;99.90
33476;DHT22;19814;48.224;11.422;2023-09-18T07:41:03;19.90;99.90
33476;DHT22;19814;48.224;11.422;2023-09-18T07:43:28;20.20;99.90
33476;DHT22;19814;48.224;11.422;2023-09-18T07:45:54;20.40;99.90
33476;DHT22;19814;48.224;11.422;2023-09-18T07:48:21;20.70;99.90
33476;DHT22;19814;48.224;11.422;2023-09-18T07:50:47;20.90;99.90
33476;DHT22;19814;48.224;11.422;2023-09-18T07:53:15;21.10;99.90
33476;DHT22;19814;48.224;11.422;2023-09-18T07:55:40;21.50;99.90
33476;DHT22;19814;48.224;11.422;2023-09-18T07:58:06;21.70;99.90
33476;DHT22;19814;48.224;11.422;2023-09-18T08:00:31;22.00;99.90
33476;DHT22;19814;48.224;11.422;2023-09-18T08:02:58;22.20;99.90
33476;DHT22;19814;48.224;11.422;2023-09-18T08:05:29;22.20;99.90
33476;DHT22;19814;48.224;11.422;2023-09-18T08:07:55;22.20;99.90
33476;DHT22;19814;48.224;11.422;2023-09-18T08:10:22;22.10;99.90
33476;DHT22;19814;48.224;11.422;2023-09-18T08:12:48;22.20;99.90
33476;DHT22;19814;48.224;11.422;2023-09-18T08:15:15;22.20;99.90
33476;DHT22;19814;48.224;11.422;2023-09-18T08:17:40;22.20;99.90
33476;DHT22;19814;48.224;11.422;2023-09-18T08:20:08;22.30;99.90
33476;DHT22;19814;48.224;11.422;2023-09-18T08:22:38;22.20;99.90
33476;DHT22;19814;48.224;11.422;2023-09-18T08:25:05;22.00;99.90
33476;DHT22;19814;48.224;11.422;2023-09-18T08:27:33;21.90;99.90
33476;DHT22;19814;48.224;11.422;2023-09-18T08:29:59;21.80;99.90
33476;DHT22;19814;48.224;11.422;2023-09-18T08:32:24;21.90;99.90
33476;DHT22;19814;48.224;11.422;2023-09-18T08:34:50;22.20;99.90
33476;DHT22;19814;48.224;11.422;2023-09-18T08:37:15;22.60;99.90
33476;DHT22;19814;48.224;11.422;2023-09-18T08:39:41;22.80;99.90
33476;DHT22;19814;48.224;11.422;2023-09-18T08:42:09;22.90;99.90
33476;DHT22;19814;48.224;11.422;2023-09-18T08:44:38;23.20;99.90
33476;DHT22;19814;48.224;11.422;2023-09-18T08:47:06;23.30;99.90
33476;DHT22;19814;48.224;11.422;2023-09-18T08:49:34;23.30;99.90
33476;DHT22;19814;48.224;11.422;2023-09-18T08:52:00;23.30;99.90
33476;DHT22;19814;48.224;11.422;2023-09-18T08:54:26;23.40;99.90
33476;DHT22;19814;48.224;11.422;2023-09-18T08:56:54;23.40;99.90
33476;DHT22;19814;48.224;11.422;2023-09-18T08:59:21;23.70;99.90
33476;DHT22;19814;48.224;11.422;2023-09-18T09:01:49;23.90;99.90
33476;DHT22;19814;48.224;11.422;2023-09-18T09:04:15;24.00;99.90
33476;DHT22;19814;48.224;11.422;2023-09-18T09:06:41;24.00;99.90
33476;DHT22;19814;48.224;11.422;2023-09-18T09:09:07;23.90;99.90
33476;DHT22;19814;48.224;11.422;2023-09-18T09:11:34;23.60;99.80
33476;DHT22;19814;48.224;11.422;2023-09-18T09:14:18;23.50;99.90
33476;DHT22;19814;48.224;11.422;2023-09-18T09:16:48;23.40;99.90
33476;DHT22;19814;48.224;11.422;2023-09-18T09:19:16;23.30;99.90
33476;DHT22;19814;48.224;11.422;2023-09-18T09:21:43;23.20;99.90
33476;DHT22;19814;48.224;11.422;2023-09-18T09:24:10;22.90;99.90
33476;DHT22;19814;48.224;11.422;2023-09-18T09:26:57;23.00;99.90
33476;DHT22;19814;48.224;11.422;2023-09-18T09:29:23;23.00;99.90
33476;DHT22;19814;48.224;11.422;2023-09-18T09:31:49;22.90;99.90
33476;DHT22;19814;48.224;11.422;2023-09-18T09:34:27;22.90;99.90
33476;DHT22;19814;48.224;11.422;2023-09-18T09:36:56;22.90;99.90
33476;DHT22;19814;48.224;11.422;2023-09-18T09:39:22;22.90;99.90
33476;DHT22;19814;48.224;11.422;2023-09-18T09:41:53;22.90;99.90
33476;DHT22;19814;48.224;11.422;2023-09-18T09:44:19;22.80;99.90
33476;DHT22;19814;48.224;11.422;2023-09-18T09:46:50;22.90;99.90
33476;DHT22;19814;48.224;11.422;2023-09-18T09:49:17;22.90;99.90
33476;DHT22;19814;48.224;11.422;2023-09-18T09:51:45;22.90;99.90
33476;DHT22;19814;48.224;11.422;2023-09-18T09:54:10;22.80;99.90
33476;DHT22;19814;48.224;11.422;2023-09-18T09:56:42;22.80;99.90
33476;DHT22;19814;48.224;11.422;2023-09-18T09:59:07;22.90;99.90
33476;DHT22;19814;48.224;11.422;2023-09-18T10:01:34;23.00;99.90
33476;DHT22;19814;48.224;11.422;2023-09-18T10:04:05;23.50;99.90
33476;DHT22;19814;48.224;11.422;2023-09-18T10:06:34;24.30;99.80
33476;DHT22;19814;48.224;11.422;2023-09-18T10:09:00;24.60;99.10
33476;DHT22;19814;48.224;11.422;2023-09-18T10:11:27;24.50;98.20
33476;DHT22;19814;48.224;11.422;2023-09-18T10:13:59;24.40;98.50
33476;DHT22;19814;48.224;11.422;2023-09-18T10:16:26;24.40;98.30
33476;DHT22;19814;48.224;11.422;2023-09-18T10:19:17;24.50;97.90
33476;DHT22;19814;48.224;11.422;2023-09-18T10:21:53;24.30;97.60
33476;DHT22;19814;48.224;11.422;2023-09-18T10:24:25;24.30;98.60
33476;DHT22;19814;48.224;11.422;2023-09-18T10:26:58;24.20;98.40
33476;DHT22;19814;48.224;11.422;2023-09-18T10:29:25;24.00;97.60
33476;DHT22;19814;48.224;11.422;2023-09-18T10:31:52;23.90;98.60
33476;DHT22;19814;48.224;11.422;2023-09-18T10:34:19;23.90;98.60
33476;DHT22;19814;48.224;11.422;2023-09-18T10:36:52;23.80;98.20
33476;DHT22;19814;48.224;11.422;2023-09-18T10:39:18;23.80;98.30
33476;DHT22;19814;48.224;11.422;2023-09-18T10:41:52;23.80;98.20
33476;DHT22;19814;48.224;11.422;2023-09-18T10:44:18;23.80;98.30
33476;DHT22;19814;48.224;11.422;2023-09-18T10:46:48;23.70;97.80
33476;DHT22;19814;48.224;11.422;2023-09-18T10:49:15;23.70;98.40
33476;DHT22;19814;48.224;11.422;2023-09-18T10:51:40;23.60;98.30
33476;DHT22;19814;48.224;11.422;2023-09-18T10:54:11;23.60;97.70
33476;DHT22;19814;48.224;11.422;2023-09-18T10:56:43;23.40;97.10
33476;DHT22;19814;48.224;11.422;2023-09-18T10:59:09;23.40;97.40
33476;DHT22;19814;48.224;11.422;2023-09-18T11:01:36;23.30;97.50
33476;DHT22;19814;48.224;11.422;2023-09-18T11:04:04;23.30;98.20
33476;DHT22;19814;48.224;11.422;2023-09-18T11:09:28;23.30;96.80
33476;DHT22;19814;48.224;11.422;2023-09-18T11:14:24;23.10;96.80
33476;DHT22;19814;48.224;11.422;2023-09-18T11:17:05;23.10;96.90
33476;DHT22;19814;48.224;11.422;2023-09-18T11:19:31;23.00;97.40
33476;DHT22;19814;48.224;11.422;2023-09-18T11:22:07;23.00;97.30
33476;DHT22;19814;48.224;11.422;2023-09-18T11:24:37;22.80;97.50
33476;DHT22;19814;48.224;11.422;2023-09-18T11:27:03;22.70;97.20
33476;DHT22;19814;48.224;11.422;2023-09-18T11:29:29;22.70;97.10
33476;DHT22;19814;48.224;11.422;2023-09-18T11:31:57;22.50;97.10
33476;DHT22;19814;48.224;11.422;2023-09-18T11:34:24;22.50;97.30
33476;DHT22;19814;48.224;11.422;2023-09-18T11:36:54;22.30;97.90
33476;DHT22;19814;48.224;11.422;2023-09-18T11:39:37;22.20;98.20
33476;DHT22;19814;48.224;11.422;2023-09-18T11:44:41;22.10;98.50
33476;DHT22;19814;48.224;11.422;2023-09-18T11:47:15;22.20;99.10
33476;DHT22;19814;48.224;11.422;2023-09-18T11:49:52;22.20;98.90
33476;DHT22;19814;48.224;11.422;2023-09-18T11:52:25;22.10;99.20
33476;DHT22;19814;48.224;11.422;2023-09-18T11:54:51;22.00;99.40
33476;DHT22;19814;48.224;11.422;2023-09-18T11:57:19;22.00;99.40
33476;DHT22;19814;48.224;11.422;2023-09-18T11:59:45;21.80;99.60
33476;DHT22;19814;48.224;11.422;2023-09-18T12:02:33;21.60;99.80
33476;DHT22;19814;48.224;11.422;2023-09-18T12:05:09;21.30;99.90
33476;DHT22;19814;48.224;11.422;2023-09-18T12:07:35;21.30;99.90
33476;DHT22;19814;48.224;11.422;2023-09-18T12:10:05;21.40;99.90
33476;DHT22;19814;48.224;11.422;2023-09-18T12:12:31;21.40;99.90
33476;DHT22;19814;48.224;11.422;2023-09-18T12:14:57;21.10;99.90
33476;DHT22;19814;48.224;11.422;2023-09-18T12:17:22;20.80;99.90
33476;DHT22;19814;48.224;11.422;2023-09-18T12:19:54;20.70;99.90
33476;DHT22;19814;48.224;11.422;2023-09-18T12:22:30;20.50;99.90
33476;DHT22;19814;48.224;11.422;2023-09-18T12:25:13;20.40;99.90
33476;DHT22;19814;48.224;11.422;2023-09-18T12:27:40;20.20;99.90
33476;DHT22;19814;48.224;11.422;2023-09-18T12:30:06;20.00;99.90
33476;DHT22;19814;48.224;11.422;2023-09-18T12:32:32;20.00;99.90
33476;DHT22;19814;48.224;11.422;2023-09-18T12:35:01;19.90;99.90
33476;DHT22;19814;48.224;11.422;2023-09-18T12:37:26;19.90;99.90
33476;DHT22;19814;48.224;11.422;2023-09-18T12:39:52;19.80;99.90
33476;DHT22;19814;48.224;11.422;2023-09-18T12:42:21;19.80;99.90
33476;DHT22;19814;48.224;11.422;2023-09-18T12:44:49;19.80;99.90
33476;DHT22;19814;48.224;11.422;2023-09-18T12:47:15;19.80;99.90
33476;DHT22;19814;48.224;11.422;2023-09-18T12:49:40;19.70;99.90
33476;DHT22;19814;48.224;11.422;2023-09-18T12:52:06;19.60;99.90
33476;DHT22;19814;48.224;11.422;2023-09-18T12:54:42;19.60;99.90
33476;DHT22;19814;48.224;11.422;2023-09-18T12:57:10;19.40;99.90
33476;DHT22;19814;48.224;11.422;2023-09-18T12:59:37;19.10;99.90
33476;DHT22;19814;48.224;11.422;2023-09-18T13:02:04;19.00;99.90
33476;DHT22;19814;48.224;11.422;2023-09-18T13:04:39;19.00;99.90
33476;DHT22;19814;48.224;11.422;2023-09-18T13:07:11;19.00;99.90
33476;DHT22;19814;48.224;11.422;2023-09-18T13:09:38;18.90;99.90
33476;DHT22;19814;48.224;11.422;2023-09-18T13:12:04;18.90;99.90
33476;DHT22;19814;48.224;11.422;2023-09-18T13:14:30;18.80;99.90
33476;DHT22;19814;48.224;11.422;2023-09-18T13:17:01;18.90;99.90
33476;DHT22;19814;48.224;11.422;2023-09-18T13:19:30;18.90;99.90
33476;DHT22;19814;48.224;11.422;2023-09-18T13:21:55;18.90;99.90
33476;DHT22;19814;48.224;11.422;2023-09-18T13:24:26;18.90;99.90
33476;DHT22;19814;48.224;11.422;2023-09-18T13:26:53;18.80;99.90
33476;DHT22;19814;48.224;11.422;2023-09-18T13:29:18;18.90;99.90
33476;DHT22;19814;48.224;11.422;2023-09-18T13:31:44;18.90;99.90
33476;DHT22;19814;48.224;11.422;2023-09-18T13:34:10;19.00;99.90
33476;DHT22;19814;48.224;11.422;2023-09-18T13:36:36;19.10;99.90
33476;DHT22;19814;48.224;11.422;2023-09-18T13:39:03;19.10;99.90
33476;DHT22;19814;48.224;11.422;2023-09-18T13:41:28;19.10;99.90
33476;DHT22;19814;48.224;11.422;2023-09-18T13:43:54;19.20;99.90
33476;DHT22;19814;48.224;11.422;2023-09-18T13:46:21;19.20;99.90
33476;DHT22;19814;48.224;11.422;2023-09-18T13:48:47;19.20;99.90
33476;DHT22;19814;48.224;11.422;2023-09-18T13:51:13;19.30;99.90
33476;DHT22;19814;48.224;11.422;2023-09-18T13:53:39;19.30;99.90
33476;DHT22;19814;48.224;11.422;2023-09-18T13:56:06;19.30;99.90
33476;DHT22;19814;48.224;11.422;2023-09-18T13:58:32;19.30;99.90
33476;DHT22;19814;48.224;11.422;2023-09-18T14:00:59;19.50;99.90
33476;DHT22;19814;48.224;11.422;2023-09-18T14:03:24;19.60;99.90
33476;DHT22;19814;48.224;11.422;2023-09-18T14:05:50;19.50;99.90
33476;DHT22;19814;48.224;11.422;2023-09-18T14:08:16;19.60;99.90
33476;DHT22;19814;48.224;11.422;2023-09-18T14:10:44;19.60;99.90
33476;DHT22;19814;48.224;11.422;2023-09-18T14:13:09;19.60;99.90
33476;DHT22;19814;48.224;11.422;2023-09-18T14:15:35;19.70;99.90
33476;DHT22;19814;48.224;11.422;2023-09-18T14:18:01;19.70;99.90
33476;DHT22;19814;48.224;11.422;2023-09-18T14:20:26;19.70;99.90
33476;DHT22;19814;48.224;11.422;2023-09-18T14:22:52;19.70;99.90
33476;DHT22;19814;48.224;11.422;2023-09-18T14:25:18;19.70;99.90
33476;DHT22;19814;48.224;11.422;2023-09-18T14:27:45;19.40;99.90
33476;DHT22;19814;48.224;11.422;2023-09-18T14:30:11;19.20;99.90
33476;DHT22;19814;48.224;11.422;2023-09-18T14:32:38;19.00;99.90
33476;DHT22;19814;48.224;11.422;2023-09-18T14:35:04;19.20;99.90
33476;DHT22;19814;48.224;11.422;2023-09-18T14:37:34;19.40;99.90
33476;DHT22;19814;48.224;11.422;2023-09-18T14:40:00;19.50;99.90
33476;DHT22;19814;48.224;11.422;2023-09-18T14:42:25;19.50;99.90
33476;DHT22;19814;48.224;11.422;2023-09-18T14:44:51;19.60;99.90
33476;DHT22;19814;48.224;11.422;2023-09-18T14:47:16;19.80;99.90
33476;DHT22;19814;48.224;11.422;2023-09-18T14:49:42;19.70;99.90
33476;DHT22;19814;48.224;11.422;2023-09-18T14:52:12;19.70;99.90
33476;DHT22;19814;48.224;11.422;2023-09-18T14:54:37;19.70;99.90
33476;DHT22;19814;48.224;11.422;2023-09-18T14:57:05;19.70;99.90
33476;DHT22;19814;48.224;11.422;2023-09-18T14:59:31;19.80;99.90
33476;DHT22;19814;48.224;11.422;2023-09-18T15:01:56;19.70;99.90
33476;DHT22;19814;48.224;11.422;2023-09-18T15:04:22;19.70;99.90
33476;DHT22;19814;48.224;11.422;2023-09-18T15:06:48;19.60;99.90
33476;DHT22;19814;48.224;11.422;2023-09-18T15:09:14;19.50;99.90
33476;DHT22;19814;48.224;11.422;2023-09-18T15:11:39;19.40;99.90
33476;DHT22;19814;48.224;11.422;2023-09-18T15:14:05;19.10;99.90
33476;DHT22;19814;48.224;11.422;2023-09-18T15:16:30;19.00;99.90
33476;DHT22;19814;48.224;11.422;2023-09-18T15:18:57;18.90;99.90
33476;DHT22;19814;48.224;11.422;2023-09-18T15:21:27;18.80;99.90
33476;DHT22;19814;48.224;11.422;2023-09-18T15:23:53;18.70;99.90
33476;DHT22;19814;48.224;11.422;2023-09-18T15:26:18;18.60;99.90